sensor_id;sensor_type;location;lat;lon;timestamp;pressure;altitude;pressure_sealevel;temperature;humidity
61039;BME280;46919;45.816;3.104;2022-07-10T00:01:02;98487.31;;;20.00;51.29
61039;BME280;46919;45.816;3.104;2022-07-10T00:03:28;98489.25;;;20.05;51.20
61039;BME280;46919;45.816;3.104;2022-07-10T00:05:53;98487.03;;;20.07;51.01
61039;BME280;46919;45.816;3.104;2022-07-10T00:08:19;98486.50;;;20.10;51.73
61039;BME280;46919;45.816;3.104;2022-07-10T00:10:44;98480.72;;;20.06;51.38
61039;BME280;46919;45.816;3.104;2022-07-10T00:13:09;98489.50;;;20.08;51.56
61039;BME280;46919;45.816;3.104;2022-07-10T00:15:35;98485.09;;;20.13;51.61
61039;BME280;46919;45.816;3.104;2022-07-10T00:18:00;98483.19;;;20.18;51.44
61039;BME280;46919;45.816;3.104;2022-07-10T00:20:26;98487.31;;;20.11;51.27
61039;BME280;46919;45.816;3.104;2022-07-10T00:22:51;98482.09;;;20.14;50.96
61039;BME280;46919;45.816;3.104;2022-07-10T00:25:17;98479.06;;;20.11;51.10
61039;BME280;46919;45.816;3.104;2022-07-10T00:27:42;98480.72;;;20.17;51.07
61039;BME280;46919;45.816;3.104;2022-07-10T00:30:14;98479.66;;;20.23;50.64
61039;BME280;46919;45.816;3.104;2022-07-10T00:32:39;98477.97;;;20.22;50.76
61039;BME280;46919;45.816;3.104;2022-07-10T00:35:06;98475.25;;;20.22;51.26
61039;BME280;46919;45.816;3.104;2022-07-10T00:37:31;98470.28;;;20.19;51.05
61039;BME280;46919;45.816;3.104;2022-07-10T00:39:57;98464.25;;;20.17;50.87
61039;BME280;46919;45.816;3.104;2022-07-10T00:42:22;98476.34;;;20.21;50.96
61039;BME280;46919;45.816;3.104;2022-07-10T00:44:48;98464.81;;;20.19;51.08
61039;BME280;46919;45.816;3.104;2022-07-10T00:47:13;98465.94;;;20.18;51.13
61039;BME280;46919;45.816;3.104;2022-07-10T00:49:42;98467.28;;;20.15;51.19
61039;BME280;46919;45.816;3.104;2022-07-10T00:52:12;98465.34;;;20.11;50.86
61039;BME280;46919;45.816;3.104;2022-07-10T00:54:40;98460.97;;;20.04;51.81
61039;BME280;46919;45.816;3.104;2022-07-10T00:57:07;98465.34;;;20.00;51.61
61039;BME280;46919;45.816;3.104;2022-07-10T00:59:33;98452.19;;;19.97;51.38
61039;BME280;46919;45.816;3.104;2022-07-10T01:02:00;98461.50;;;19.91;51.54
61039;BME280;46919;45.816;3.104;2022-07-10T01:04:26;98460.38;;;19.87;52.10
61039;BME280;46919;45.816;3.104;2022-07-10T01:06:52;98457.91;;;19.85;51.99
61039;BME280;46919;45.816;3.104;2022-07-10T01:09:17;98451.34;;;19.81;51.72
61039;BME280;46919;45.816;3.104;2022-07-10T01:11:43;98451.63;;;19.85;51.77
61039;BME280;46919;45.816;3.104;2022-07-10T01:14:10;98447.78;;;19.86;51.98
61039;BME280;46919;45.816;3.104;2022-07-10T01:16:36;98443.94;;;19.87;52.14
61039;BME280;46919;45.816;3.104;2022-07-10T01:19:02;98444.47;;;19.84;52.53
61039;BME280;46919;45.816;3.104;2022-07-10T01:21:29;98443.91;;;19.77;52.90
61039;BME280;46919;45.816;3.104;2022-07-10T01:23:55;98441.41;;;19.75;52.86
61039;BME280;46919;45.816;3.104;2022-07-10T01:26:21;98435.63;;;19.66;53.28
61039;BME280;46919;45.816;3.104;2022-07-10T01:28:52;98446.31;;;19.63;53.05
61039;BME280;46919;45.816;3.104;2022-07-10T01:31:25;98437.25;;;19.57;53.31
61039;BME280;46919;45.816;3.104;2022-07-10T01:33:51;98440.78;;;19.47;53.66
61039;BME280;46919;45.816;3.104;2022-07-10T01:36:17;98431.75;;;19.52;53.14
61039;BME280;46919;45.816;3.104;2022-07-10T01:38:43;98442.72;;;19.57;53.18
61039;BME280;46919;45.816;3.104;2022-07-10T01:41:09;98432.34;;;19.59;53.04
61039;BME280;46919;45.816;3.104;2022-07-10T01:43:35;98438.09;;;19.52;52.93
61039;BME280;46919;45.816;3.104;2022-07-10T01:46:04;98431.22;;;19.50;53.28
61039;BME280;46919;45.816;3.104;2022-07-10T01:48:30;98427.94;;;19.48;52.99
61039;BME280;46919;45.816;3.104;2022-07-10T01:50:56;98429.53;;;19.44;52.98
61039;BME280;46919;45.816;3.104;2022-07-10T01:53:22;98431.47;;;19.48;53.18
61039;BME280;46919;45.816;3.104;2022-07-10T01:55:48;98433.38;;;19.43;53.10
61039;BME280;46919;45.816;3.104;2022-07-10T01:58:14;98427.88;;;19.43;53.12
61039;BME280;46919;45.816;3.104;2022-07-10T02:00:39;98426.25;;;19.36;53.02
61039;BME280;46919;45.816;3.104;2022-07-10T02:03:04;98424.59;;;19.30;53.63
61039;BME280;46919;45.816;3.104;2022-07-10T02:05:48;98427.59;;;19.29;53.59
61039;BME280;46919;45.816;3.104;2022-07-10T02:08:14;98426.19;;;19.21;53.82
61039;BME280;46919;45.816;3.104;2022-07-10T02:10:39;98415.22;;;19.16;54.48
61039;BME280;46919;45.816;3.104;2022-07-10T02:13:05;98419.31;;;19.13;54.37
61039;BME280;46919;45.816;3.104;2022-07-10T02:15:30;98423.38;;;19.11;54.29
61039;BME280;46919;45.816;3.104;2022-07-10T02:17:56;98428.84;;;19.06;54.37
61039;BME280;46919;45.816;3.104;2022-07-10T02:20:21;98428.31;;;19.09;54.98
61039;BME280;46919;45.816;3.104;2022-07-10T02:22:46;98420.09;;;19.09;54.20
61039;BME280;46919;45.816;3.104;2022-07-10T02:25:12;98422.28;;;19.07;54.26
61039;BME280;46919;45.816;3.104;2022-07-10T02:27:37;98418.44;;;19.03;54.14
61039;BME280;46919;45.816;3.104;2022-07-10T02:30:03;98425.56;;;19.04;54.77
61039;BME280;46919;45.816;3.104;2022-07-10T02:32:29;98430.19;;;19.03;55.12
61039;BME280;46919;45.816;3.104;2022-07-10T02:34:54;98422.81;;;19.04;54.91
61039;BME280;46919;45.816;3.104;2022-07-10T02:37:20;98427.19;;;18.99;54.74
61039;BME280;46919;45.816;3.104;2022-07-10T02:39:45;98419.50;;;19.01;54.84
61039;BME280;46919;45.816;3.104;2022-07-10T02:42:10;98424.41;;;18.94;55.01
61039;BME280;46919;45.816;3.104;2022-07-10T02:44:36;98421.69;;;18.94;55.17
61039;BME280;46919;45.816;3.104;2022-07-10T02:47:03;98427.69;;;18.91;55.55
61039;BME280;46919;45.816;3.104;2022-07-10T02:49:28;98425.78;;;18.92;55.29
61039;BME280;46919;45.816;3.104;2022-07-10T02:51:53;98424.34;;;18.84;55.19
61039;BME280;46919;45.816;3.104;2022-07-10T02:54:19;98429.84;;;18.84;55.29
61039;BME280;46919;45.816;3.104;2022-07-10T02:56:44;98433.03;;;18.71;56.06
61039;BME280;46919;45.816;3.104;2022-07-10T02:59:10;98433.81;;;18.66;55.84
61039;BME280;46919;45.816;3.104;2022-07-10T03:01:35;98433.78;;;18.61;55.91
61039;BME280;46919;45.816;3.104;2022-07-10T03:04:00;98430.78;;;18.62;56.46
61039;BME280;46919;45.816;3.104;2022-07-10T03:06:26;98433.00;;;18.65;56.11
61039;BME280;46919;45.816;3.104;2022-07-10T03:08:52;98429.41;;;18.65;56.37
61039;BME280;46919;45.816;3.104;2022-07-10T03:11:17;98429.91;;;18.57;56.45
61039;BME280;46919;45.816;3.104;2022-07-10T03:13:42;98426.34;;;18.51;56.83
61039;BME280;46919;45.816;3.104;2022-07-10T03:16:08;98424.63;;;18.40;57.25
61039;BME280;46919;45.816;3.104;2022-07-10T03:18:33;98423.50;;;18.41;57.21
61039;BME280;46919;45.816;3.104;2022-07-10T03:20:59;98425.44;;;18.40;57.11
61039;BME280;46919;45.816;3.104;2022-07-10T03:23:24;98424.88;;;18.38;57.71
61039;BME280;46919;45.816;3.104;2022-07-10T03:25:51;98431.44;;;18.37;57.75
61039;BME280;46919;45.816;3.104;2022-07-10T03:28:16;98426.22;;;18.36;57.35
61039;BME280;46919;45.816;3.104;2022-07-10T03:30:42;98427.63;;;18.38;58.40
61039;BME280;46919;45.816;3.104;2022-07-10T03:33:07;98430.56;;;18.32;57.94
61039;BME280;46919;45.816;3.104;2022-07-10T03:35:33;98425.59;;;18.28;58.47
61039;BME280;46919;45.816;3.104;2022-07-10T03:37:58;98423.41;;;18.25;58.47
61039;BME280;46919;45.816;3.104;2022-07-10T03:40:24;98424.25;;;18.26;58.43
61039;BME280;46919;45.816;3.104;2022-07-10T03:42:49;98416.84;;;18.26;58.45
61039;BME280;46919;45.816;3.104;2022-07-10T03:45:15;98423.38;;;18.20;58.73
61039;BME280;46919;45.816;3.104;2022-07-10T03:47:40;98420.06;;;18.18;58.90
61039;BME280;46919;45.816;3.104;2022-07-10T03:50:06;98415.13;;;18.15;59.00
61039;BME280;46919;45.816;3.104;2022-07-10T03:52:31;98414.56;;;18.13;58.65
61039;BME280;46919;45.816;3.104;2022-07-10T03:54:57;98413.78;;;18.18;59.18
61039;BME280;46919;45.816;3.104;2022-07-10T03:57:22;98416.78;;;18.16;59.13
61039;BME280;46919;45.816;3.104;2022-07-10T04:00:07;98414.81;;;18.12;59.06
61039;BME280;46919;45.816;3.104;2022-07-10T04:02:32;98409.28;;;18.06;58.90
61039;BME280;46919;45.816;3.104;2022-07-10T04:04:58;98409.59;;;18.05;58.97
61039;BME280;46919;45.816;3.104;2022-07-10T04:07:23;98410.41;;;18.05;59.00
61039;BME280;46919;45.816;3.104;2022-07-10T04:09:49;98410.94;;;18.07;58.79
61039;BME280;46919;45.816;3.104;2022-07-10T04:12:14;98416.97;;;18.09;59.15
61039;BME280;46919;45.816;3.104;2022-07-10T04:14:40;98408.25;;;18.13;60.11
61039;BME280;46919;45.816;3.104;2022-07-10T04:17:05;98418.94;;;18.14;59.53
61039;BME280;46919;45.816;3.104;2022-07-10T04:19:30;98411.75;;;18.08;59.63
61039;BME280;46919;45.816;3.104;2022-07-10T04:21:56;98415.13;;;18.15;59.42
61039;BME280;46919;45.816;3.104;2022-07-10T04:24:21;98414.31;;;18.15;59.89
61039;BME280;46919;45.816;3.104;2022-07-10T04:26:47;98416.25;;;18.19;60.30
61039;BME280;46919;45.816;3.104;2022-07-10T04:29:13;98420.81;;;18.08;60.47
61039;BME280;46919;45.816;3.104;2022-07-10T04:31:39;98420.22;;;18.06;60.73
61039;BME280;46919;45.816;3.104;2022-07-10T04:34:04;98426.50;;;18.02;60.65
61039;BME280;46919;45.816;3.104;2022-07-10T04:36:29;98427.88;;;18.04;60.43
61039;BME280;46919;45.816;3.104;2022-07-10T04:38:55;98431.19;;;18.06;60.84
61039;BME280;46919;45.816;3.104;2022-07-10T04:41:21;98425.25;;;18.15;60.71
61039;BME280;46919;45.816;3.104;2022-07-10T04:43:46;98424.94;;;18.11;61.14
61039;BME280;46919;45.816;3.104;2022-07-10T04:46:12;98422.38;;;17.99;61.79
61039;BME280;46919;45.816;3.104;2022-07-10T04:48:37;98424.06;;;18.05;61.71
61039;BME280;46919;45.816;3.104;2022-07-10T04:51:03;98420.78;;;18.03;62.24
61039;BME280;46919;45.816;3.104;2022-07-10T04:53:28;98426.00;;;18.05;62.56
61039;BME280;46919;45.816;3.104;2022-07-10T04:55:53;98426.03;;;18.10;62.08
61039;BME280;46919;45.816;3.104;2022-07-10T04:58:19;98427.13;;;18.14;62.31
61039;BME280;46919;45.816;3.104;2022-07-10T05:00:44;98432.97;;;18.23;62.26
61039;BME280;46919;45.816;3.104;2022-07-10T05:03:10;98431.59;;;18.25;63.03
61039;BME280;46919;45.816;3.104;2022-07-10T05:05:35;98428.31;;;18.23;62.67
61039;BME280;46919;45.816;3.104;2022-07-10T05:08:00;98430.75;;;18.20;63.17
61039;BME280;46919;45.816;3.104;2022-07-10T05:10:26;98429.94;;;18.19;63.00
61039;BME280;46919;45.816;3.104;2022-07-10T05:12:52;98424.41;;;18.14;63.23
61039;BME280;46919;45.816;3.104;2022-07-10T05:15:18;98420.06;;;18.18;63.21
61039;BME280;46919;45.816;3.104;2022-07-10T05:17:43;98433.53;;;18.25;63.03
61039;BME280;46919;45.816;3.104;2022-07-10T05:20:09;98416.31;;;18.29;63.12
61039;BME280;46919;45.816;3.104;2022-07-10T05:22:35;98431.19;;;18.39;62.96
61039;BME280;46919;45.816;3.104;2022-07-10T05:25:01;98436.97;;;18.47;63.13
61039;BME280;46919;45.816;3.104;2022-07-10T05:27:26;98433.44;;;18.52;62.90
61039;BME280;46919;45.816;3.104;2022-07-10T05:29:52;98432.97;;;18.60;63.32
61039;BME280;46919;45.816;3.104;2022-07-10T05:32:17;98430.25;;;18.65;63.01
61039;BME280;46919;45.816;3.104;2022-07-10T05:34:43;98431.31;;;18.59;63.11
61039;BME280;46919;45.816;3.104;2022-07-10T05:37:08;98428.03;;;18.57;62.94
61039;BME280;46919;45.816;3.104;2022-07-10T05:39:34;98431.56;;;18.58;62.65
61039;BME280;46919;45.816;3.104;2022-07-10T05:42:00;98436.78;;;18.59;63.09
61039;BME280;46919;45.816;3.104;2022-07-10T05:44:25;98435.75;;;18.65;63.34
61039;BME280;46919;45.816;3.104;2022-07-10T05:46:51;98437.41;;;18.72;63.24
61039;BME280;46919;45.816;3.104;2022-07-10T05:49:16;98431.44;;;18.80;63.57
61039;BME280;46919;45.816;3.104;2022-07-10T05:51:42;98432.88;;;18.88;63.42
61039;BME280;46919;45.816;3.104;2022-07-10T05:54:08;98433.16;;;18.86;63.47
61039;BME280;46919;45.816;3.104;2022-07-10T05:56:34;98427.16;;;18.94;63.76
61039;BME280;46919;45.816;3.104;2022-07-10T05:58:59;98430.72;;;19.00;63.69
61039;BME280;46919;45.816;3.104;2022-07-10T06:01:24;98428.28;;;18.98;62.83
61039;BME280;46919;45.816;3.104;2022-07-10T06:03:51;98428.56;;;18.97;63.40
61039;BME280;46919;45.816;3.104;2022-07-10T06:06:16;98426.66;;;19.03;63.23
61039;BME280;46919;45.816;3.104;2022-07-10T06:08:43;98422.84;;;19.09;63.51
61039;BME280;46919;45.816;3.104;2022-07-10T06:11:09;98429.19;;;19.14;63.18
61039;BME280;46919;45.816;3.104;2022-07-10T06:13:36;98430.25;;;19.13;63.83
61039;BME280;46919;45.816;3.104;2022-07-10T06:16:01;98427.81;;;19.22;64.17
61039;BME280;46919;45.816;3.104;2022-07-10T06:18:27;98427.28;;;19.25;63.70
61039;BME280;46919;45.816;3.104;2022-07-10T06:20:52;98422.66;;;19.31;64.04
61039;BME280;46919;45.816;3.104;2022-07-10T06:23:17;98425.13;;;19.37;64.12
61039;BME280;46919;45.816;3.104;2022-07-10T06:25:43;98420.47;;;19.33;63.83
61039;BME280;46919;45.816;3.104;2022-07-10T06:28:08;98420.19;;;19.29;64.90
61039;BME280;46919;45.816;3.104;2022-07-10T06:30:34;98423.78;;;19.35;64.40
61039;BME280;46919;45.816;3.104;2022-07-10T06:32:59;98413.63;;;19.35;64.33
61039;BME280;46919;45.816;3.104;2022-07-10T06:35:25;98411.69;;;19.36;64.17
61039;BME280;46919;45.816;3.104;2022-07-10T06:37:50;98409.81;;;19.36;64.39
61039;BME280;46919;45.816;3.104;2022-07-10T06:40:17;98410.63;;;19.42;64.30
61039;BME280;46919;45.816;3.104;2022-07-10T06:42:45;98409.28;;;19.45;64.51
61039;BME280;46919;45.816;3.104;2022-07-10T06:45:10;98408.44;;;19.44;64.29
61039;BME280;46919;45.816;3.104;2022-07-10T06:47:36;98408.19;;;19.51;64.08
61039;BME280;46919;45.816;3.104;2022-07-10T06:50:20;98412.03;;;19.50;64.44
61039;BME280;46919;45.816;3.104;2022-07-10T06:52:46;98405.47;;;19.51;64.18
61039;BME280;46919;45.816;3.104;2022-07-10T06:55:12;98409.84;;;19.57;63.94
61039;BME280;46919;45.816;3.104;2022-07-10T06:57:38;98410.41;;;19.59;63.78
61039;BME280;46919;45.816;3.104;2022-07-10T07:00:05;98412.06;;;19.65;64.04
61039;BME280;46919;45.816;3.104;2022-07-10T07:02:30;98404.94;;;19.69;64.00
61039;BME280;46919;45.816;3.104;2022-07-10T07:04:56;98407.66;;;19.64;64.30
61039;BME280;46919;45.816;3.104;2022-07-10T07:07:21;98412.06;;;19.70;64.21
61039;BME280;46919;45.816;3.104;2022-07-10T07:09:47;98411.28;;;19.80;63.75
61039;BME280;46919;45.816;3.104;2022-07-10T07:12:15;98407.16;;;19.78;63.89
61039;BME280;46919;45.816;3.104;2022-07-10T07:14:40;98416.50;;;19.77;63.99
61039;BME280;46919;45.816;3.104;2022-07-10T07:17:05;98405.25;;;19.78;63.89
61039;BME280;46919;45.816;3.104;2022-07-10T07:19:33;98412.66;;;19.88;64.08
61039;BME280;46919;45.816;3.104;2022-07-10T07:22:17;98408.28;;;20.02;63.53
61039;BME280;46919;45.816;3.104;2022-07-10T07:25:01;98407.47;;;20.07;63.44
61039;BME280;46919;45.816;3.104;2022-07-10T07:27:27;98413.50;;;20.14;63.08
61039;BME280;46919;45.816;3.104;2022-07-10T07:29:52;98404.44;;;20.14;63.25
61039;BME280;46919;45.816;3.104;2022-07-10T07:32:17;98402.25;;;20.11;63.62
61039;BME280;46919;45.816;3.104;2022-07-10T07:34:43;98407.47;;;20.22;63.91
61039;BME280;46919;45.816;3.104;2022-07-10T07:37:08;98404.69;;;20.33;63.45
61039;BME280;46919;45.816;3.104;2022-07-10T07:39:33;98404.97;;;20.31;63.83
61039;BME280;46919;45.816;3.104;2022-07-10T07:41:59;98406.09;;;20.30;63.84
61039;BME280;46919;45.816;3.104;2022-07-10T07:44:24;98410.19;;;20.38;63.70
61039;BME280;46919;45.816;3.104;2022-07-10T07:46:50;98414.88;;;20.48;62.99
61039;BME280;46919;45.816;3.104;2022-07-10T07:49:15;98404.66;;;20.58;62.58
61039;BME280;46919;45.816;3.104;2022-07-10T07:51:40;98400.28;;;20.68;62.55
61039;BME280;46919;45.816;3.104;2022-07-10T07:54:06;98406.31;;;20.70;62.39
61039;BME280;46919;45.816;3.104;2022-07-10T07:56:31;98405.47;;;20.79;62.62
61039;BME280;46919;45.816;3.104;2022-07-10T07:58:57;98403.78;;;20.89;61.80
61039;BME280;46919;45.816;3.104;2022-07-10T08:01:22;98391.16;;;20.88;62.22
61039;BME280;46919;45.816;3.104;2022-07-10T08:03:48;98390.06;;;20.94;62.15
61039;BME280;46919;45.816;3.104;2022-07-10T08:06:13;98385.06;;;21.01;61.86
61039;BME280;46919;45.816;3.104;2022-07-10T08:08:39;98389.16;;;21.09;61.57
61039;BME280;46919;45.816;3.104;2022-07-10T08:11:04;98386.09;;;21.21;61.12
61039;BME280;46919;45.816;3.104;2022-07-10T08:13:30;98381.09;;;21.28;60.93
61039;BME280;46919;45.816;3.104;2022-07-10T08:15:57;98390.41;;;21.37;60.66
61039;BME280;46919;45.816;3.104;2022-07-10T08:18:23;98387.66;;;21.37;60.22
61039;BME280;46919;45.816;3.104;2022-07-10T08:20:48;98386.28;;;21.40;60.80
61039;BME280;46919;45.816;3.104;2022-07-10T08:23:14;98383.25;;;21.41;61.24
61039;BME280;46919;45.816;3.104;2022-07-10T08:25:39;98373.78;;;21.63;60.38
61039;BME280;46919;45.816;3.104;2022-07-10T08:28:04;98372.72;;;21.59;60.43
61039;BME280;46919;45.816;3.104;2022-07-10T08:30:35;98373.72;;;21.73;60.36
61039;BME280;46919;45.816;3.104;2022-07-10T08:33:01;98370.81;;;21.88;59.39
61039;BME280;46919;45.816;3.104;2022-07-10T08:35:26;98377.97;;;21.89;59.06
61039;BME280;46919;45.816;3.104;2022-07-10T08:37:52;98372.41;;;22.00;58.96
61039;BME280;46919;45.816;3.104;2022-07-10T08:40:21;98364.69;;;22.02;58.13
61039;BME280;46919;45.816;3.104;2022-07-10T08:42:46;98362.94;;;22.11;58.59
61039;BME280;46919;45.816;3.104;2022-07-10T08:45:13;98367.78;;;22.24;58.90
61039;BME280;46919;45.816;3.104;2022-07-10T08:47:39;98371.88;;;22.32;57.78
61039;BME280;46919;45.816;3.104;2022-07-10T08:52:53;98358.75;;;22.48;57.28
61039;BME280;46919;45.816;3.104;2022-07-10T08:55:26;98360.69;;;22.48;56.96
61039;BME280;46919;45.816;3.104;2022-07-10T08:57:53;98362.59;;;22.52;57.29
61039;BME280;46919;45.816;3.104;2022-07-10T09:00:20;98361.38;;;22.58;57.20
61039;BME280;46919;45.816;3.104;2022-07-10T09:02:45;98362.00;;;22.55;57.32
61039;BME280;46919;45.816;3.104;2022-07-10T09:05:11;98359.72;;;22.63;56.66
61039;BME280;46919;45.816;3.104;2022-07-10T09:07:37;98362.09;;;22.69;57.39
61039;BME280;46919;45.816;3.104;2022-07-10T09:10:10;98365.06;;;22.78;57.19
61039;BME280;46919;45.816;3.104;2022-07-10T09:12:59;98357.19;;;22.90;56.71
61039;BME280;46919;45.816;3.104;2022-07-10T09:15:28;98350.72;;;23.00;56.18
61039;BME280;46919;45.816;3.104;2022-07-10T09:18:03;98354.81;;;23.03;56.57
61039;BME280;46919;45.816;3.104;2022-07-10T09:20:48;98358.72;;;23.02;56.36
61039;BME280;46919;45.816;3.104;2022-07-10T09:23:22;98348.72;;;23.06;56.72
61039;BME280;46919;45.816;3.104;2022-07-10T09:25:49;98352.13;;;23.22;55.85
61039;BME280;46919;45.816;3.104;2022-07-10T09:28:20;98348.16;;;23.28;55.75
61039;BME280;46919;45.816;3.104;2022-07-10T09:30:46;98354.66;;;23.37;55.24
61039;BME280;46919;45.816;3.104;2022-07-10T09:38:50;98343.34;;;23.58;53.99
61039;BME280;46919;45.816;3.104;2022-07-10T09:41:26;98343.78;;;23.65;53.98
61039;BME280;46919;45.816;3.104;2022-07-10T09:46:21;98341.47;;;23.91;54.59
61039;BME280;46919;45.816;3.104;2022-07-10T09:48:48;98348.88;;;24.10;54.42
61039;BME280;46919;45.816;3.104;2022-07-10T09:51:13;98339.25;;;24.07;53.67
61039;BME280;46919;45.816;3.104;2022-07-10T09:53:43;98350.09;;;24.03;53.30
61039;BME280;46919;45.816;3.104;2022-07-10T09:56:10;98347.22;;;24.09;53.09
61039;BME280;46919;45.816;3.104;2022-07-10T09:58:37;98347.69;;;24.16;52.12
61039;BME280;46919;45.816;3.104;2022-07-10T10:01:07;98335.50;;;24.17;52.33
61039;BME280;46919;45.816;3.104;2022-07-10T10:03:37;98339.81;;;24.23;52.48
61039;BME280;46919;45.816;3.104;2022-07-10T10:06:11;98350.97;;;24.46;51.18
61039;BME280;46919;45.816;3.104;2022-07-10T10:08:56;98343.06;;;24.58;51.31
61039;BME280;46919;45.816;3.104;2022-07-10T10:11:26;98341.03;;;24.64;50.79
61039;BME280;46919;45.816;3.104;2022-07-10T10:13:52;98343.97;;;24.67;52.64
61039;BME280;46919;45.816;3.104;2022-07-10T10:16:19;98339.56;;;24.80;51.21
61039;BME280;46919;45.816;3.104;2022-07-10T10:18:44;98340.81;;;24.74;51.00
61039;BME280;46919;45.816;3.104;2022-07-10T10:21:29;98335.59;;;24.72;50.73
61039;BME280;46919;45.816;3.104;2022-07-10T10:23:55;98338.16;;;24.83;51.17
61039;BME280;46919;45.816;3.104;2022-07-10T10:26:24;98337.22;;;25.01;50.60
61039;BME280;46919;45.816;3.104;2022-07-10T10:28:54;98330.97;;;25.09;50.13
61039;BME280;46919;45.816;3.104;2022-07-10T10:31:22;98329.31;;;25.08;49.29
61039;BME280;46919;45.816;3.104;2022-07-10T10:33:48;98326.28;;;24.82;49.29
61039;BME280;46919;45.816;3.104;2022-07-10T10:39:18;98324.19;;;25.16;48.32
61039;BME280;46919;45.816;3.104;2022-07-10T10:41:51;98326.25;;;25.10;48.06
61039;BME280;46919;45.816;3.104;2022-07-10T10:49:23;98323.44;;;25.24;46.49
61039;BME280;46919;45.816;3.104;2022-07-10T10:52:03;98318.41;;;25.40;46.00
61039;BME280;46919;45.816;3.104;2022-07-10T10:59:55;98296.56;;;25.75;46.43
61039;BME280;46919;45.816;3.104;2022-07-10T11:02:29;98290.50;;;25.95;46.29
61039;BME280;46919;45.816;3.104;2022-07-10T11:10:37;98290.50;;;25.95;45.58
61039;BME280;46919;45.816;3.104;2022-07-10T11:13:14;98279.38;;;26.09;44.39
61039;BME280;46919;45.816;3.104;2022-07-10T11:15:49;98286.06;;;26.17;44.23
61039;BME280;46919;45.816;3.104;2022-07-10T11:18:21;98282.56;;;26.34;45.12
61039;BME280;46919;45.816;3.104;2022-07-10T11:20:54;98290.09;;;26.33;44.83
61039;BME280;46919;45.816;3.104;2022-07-10T11:26:03;98288.03;;;26.16;43.29
61039;BME280;46919;45.816;3.104;2022-07-10T11:31:09;98281.06;;;26.28;42.76
61039;BME280;46919;45.816;3.104;2022-07-10T11:33:45;98276.69;;;26.27;42.93
61039;BME280;46919;45.816;3.104;2022-07-10T11:36:13;98276.06;;;26.30;42.28
61039;BME280;46919;45.816;3.104;2022-07-10T11:38:40;98286.38;;;26.47;41.33
61039;BME280;46919;45.816;3.104;2022-07-10T11:41:17;98283.31;;;26.57;41.46
61039;BME280;46919;45.816;3.104;2022-07-10T11:43:58;98282.78;;;26.46;40.57
61039;BME280;46919;45.816;3.104;2022-07-10T11:46:29;98271.41;;;26.56;39.85
61039;BME280;46919;45.816;3.104;2022-07-10T11:48:55;98270.50;;;26.70;39.49
61039;BME280;46919;45.816;3.104;2022-07-10T11:51:29;98257.50;;;26.79;39.45
61039;BME280;46919;45.816;3.104;2022-07-10T11:54:05;98267.13;;;26.99;38.91
61039;BME280;46919;45.816;3.104;2022-07-10T11:56:36;98263.91;;;27.06;37.93
61039;BME280;46919;45.816;3.104;2022-07-10T11:59:08;98256.69;;;27.14;37.56
61039;BME280;46919;45.816;3.104;2022-07-10T12:01:48;98257.06;;;27.21;36.11
61039;BME280;46919;45.816;3.104;2022-07-10T12:04:23;98251.19;;;27.31;36.77
61039;BME280;46919;45.816;3.104;2022-07-10T12:06:52;98257.75;;;27.44;36.51
61039;BME280;46919;45.816;3.104;2022-07-10T12:09:22;98260.50;;;27.61;36.16
61039;BME280;46919;45.816;3.104;2022-07-10T12:12:05;98248.41;;;27.57;36.45
61039;BME280;46919;45.816;3.104;2022-07-10T12:14:31;98263.44;;;27.47;35.68
61039;BME280;46919;45.816;3.104;2022-07-10T12:16:58;98251.19;;;27.57;36.36
61039;BME280;46919;45.816;3.104;2022-07-10T12:19:37;98247.53;;;27.83;36.42
61039;BME280;46919;45.816;3.104;2022-07-10T12:22:04;98240.34;;;27.91;35.19
61039;BME280;46919;45.816;3.104;2022-07-10T12:24:30;98252.63;;;27.81;35.46
61039;BME280;46919;45.816;3.104;2022-07-10T12:26:56;98241.81;;;27.88;36.42
61039;BME280;46919;45.816;3.104;2022-07-10T12:31:48;98246.38;;;28.01;36.21
61039;BME280;46919;45.816;3.104;2022-07-10T12:34:15;98248.63;;;28.17;36.35
61039;BME280;46919;45.816;3.104;2022-07-10T12:36:42;98232.56;;;28.31;36.13
61039;BME280;46919;45.816;3.104;2022-07-10T12:39:13;98234.69;;;28.64;35.49
61039;BME280;46919;45.816;3.104;2022-07-10T12:41:58;98227.94;;;28.74;34.25
61039;BME280;46919;45.816;3.104;2022-07-10T12:44:44;98241.28;;;28.51;34.88
61039;BME280;46919;45.816;3.104;2022-07-10T12:47:14;98236.19;;;28.62;34.52
61039;BME280;46919;45.816;3.104;2022-07-10T12:54:48;98239.97;;;28.87;34.29
61039;BME280;46919;45.816;3.104;2022-07-10T12:57:14;98236.97;;;29.22;32.67
61039;BME280;46919;45.816;3.104;2022-07-10T12:59:39;98233.28;;;29.30;32.78
61039;BME280;46919;45.816;3.104;2022-07-10T13:02:18;98224.00;;;29.59;32.67
61039;BME280;46919;45.816;3.104;2022-07-10T13:04:56;98220.91;;;29.73;31.64
61039;BME280;46919;45.816;3.104;2022-07-10T13:07:32;98232.78;;;29.49;32.70
61039;BME280;46919;45.816;3.104;2022-07-10T13:10:15;98217.88;;;29.78;30.71
61039;BME280;46919;45.816;3.104;2022-07-10T13:12:41;98219.34;;;29.85;32.07
61039;BME280;46919;45.816;3.104;2022-07-10T13:15:07;98221.47;;;30.00;32.30
61039;BME280;46919;45.816;3.104;2022-07-10T13:17:32;98211.94;;;29.89;31.32
61039;BME280;46919;45.816;3.104;2022-07-10T13:19:58;98207.63;;;29.91;31.02
61039;BME280;46919;45.816;3.104;2022-07-10T13:22:23;98209.16;;;30.13;30.02
61039;BME280;46919;45.816;3.104;2022-07-10T13:24:49;98211.50;;;30.24;30.77
61039;BME280;46919;45.816;3.104;2022-07-10T13:27:14;98213.97;;;30.62;30.64
61039;BME280;46919;45.816;3.104;2022-07-10T13:29:40;98216.16;;;30.81;30.13
61039;BME280;46919;45.816;3.104;2022-07-10T13:32:06;98212.06;;;30.91;29.46
61039;BME280;46919;45.816;3.104;2022-07-10T13:34:31;98221.13;;;30.88;29.00
61039;BME280;46919;45.816;3.104;2022-07-10T13:36:57;98207.53;;;30.86;29.01
61039;BME280;46919;45.816;3.104;2022-07-10T13:39:24;98204.75;;;30.99;29.33
61039;BME280;46919;45.816;3.104;2022-07-10T13:41:49;98206.81;;;31.14;29.40
61039;BME280;46919;45.816;3.104;2022-07-10T13:44:16;98206.50;;;31.32;28.86